createdAt,value
2022-11-27T00:01:28.717Z,90.10
2022-11-27T00:04:47.568Z,91.04
2022-11-27T00:08:01.415Z,89.44
2022-11-27T00:11:21.331Z,90.06
2022-11-27T00:14:35.636Z,90.16
2022-11-27T00:17:50.063Z,90.69
2022-11-27T00:21:00.370Z,90.87
2022-11-27T00:24:09.891Z,90.96
2022-11-27T00:27:18.368Z,91.18
2022-11-27T00:30:27.369Z,91.09
2022-11-27T00:33:36.474Z,90.78
2022-11-27T00:36:48.223Z,90.34
2022-11-27T00:40:02.670Z,90.43
2022-11-27T00:43:17.584Z,90.22
2022-11-27T00:46:35.150Z,90.96
2022-11-27T00:49:46.809Z,91.33
2022-11-27T00:53:01.645Z,89.83
2022-11-27T00:56:15.857Z,90.95
2022-11-27T00:59:29.168Z,90.59
2022-11-27T01:02:39.419Z,90.23
2022-11-27T01:05:48.368Z,90.98
2022-11-27T01:08:57.680Z,90.76
2022-11-27T01:12:06.366Z,89.56
2022-11-27T01:15:16.101Z,90.32
2022-11-27T01:18:24.369Z,91.37
2022-11-27T01:21:38.959Z,91.60
2022-11-27T01:24:46.677Z,90.83
2022-11-27T01:27:56.463Z,90.73
2022-11-27T01:31:27.253Z,90.52
2022-11-27T01:34:41.963Z,91.15
2022-11-27T01:37:56.877Z,91.73
2022-11-27T01:41:28.283Z,91.53
2022-11-27T01:44:40.477Z,91.85
2022-11-27T01:48:06.126Z,91.69
2022-11-27T01:51:18.370Z,90.86
2022-11-27T01:54:28.314Z,90.71
2022-11-27T01:57:47.597Z,91.10
2022-11-27T02:01:04.144Z,90.84
2022-11-27T02:04:15.375Z,90.26
2022-11-27T02:07:24.397Z,90.34
2022-11-27T02:10:58.232Z,90.65
2022-11-27T02:14:24.369Z,91.10
2022-11-27T02:17:58.332Z,91.72
2022-11-27T02:21:37.491Z,90.90
2022-11-27T02:25:28.699Z,91.40
2022-11-27T02:29:10.573Z,91.34
2022-11-27T02:32:57.370Z,91.29
2022-11-27T02:36:16.751Z,91.11
2022-11-27T02:39:41.585Z,91.05
2022-11-27T02:43:06.473Z,90.94
2022-11-27T02:46:19.806Z,91.29
2022-11-27T02:49:34.939Z,91.21
2022-11-27T02:52:51.728Z,91.46
2022-11-27T02:56:03.472Z,92.27
2022-11-27T02:59:13.408Z,92.08
2022-11-27T03:02:31.445Z,92.21
2022-11-27T03:05:49.327Z,92.07
2022-11-27T03:09:12.561Z,92.32
2022-11-27T03:12:26.929Z,91.85
2022-11-27T03:15:50.002Z,91.12
2022-11-27T03:19:30.367Z,91.39
2022-11-27T03:22:40.308Z,92.09
2022-11-27T03:25:49.303Z,91.22
2022-11-27T03:28:58.408Z,90.42
2022-11-27T03:32:07.718Z,90.37
2022-11-27T03:35:27.086Z,91.61
2022-11-27T03:38:42.350Z,91.07
2022-11-27T03:42:36.168Z,91.61
2022-11-27T03:46:06.419Z,91.76
2022-11-27T03:49:27.951Z,92.23
2022-11-27T03:53:06.164Z,91.84
2022-11-27T03:56:45.490Z,91.63
2022-11-27T04:00:03.085Z,91.96
2022-11-27T04:03:17.818Z,91.46
2022-11-27T04:06:25.410Z,91.46
2022-11-27T04:09:34.411Z,90.66
2022-11-27T04:12:43.722Z,90.21
2022-11-27T04:15:52.479Z,91.53
2022-11-27T04:19:01.306Z,92.16
2022-11-27T04:22:10.410Z,92.14
2022-11-27T04:25:19.306Z,92.03
2022-11-27T04:28:28.723Z,91.77
2022-11-27T04:31:37.350Z,91.64
2022-11-27T04:34:46.409Z,92.42
2022-11-27T04:37:55.304Z,92.35
2022-11-27T04:41:04.417Z,91.77
2022-11-27T04:44:13.411Z,91.70
2022-11-27T04:47:22.410Z,90.75
2022-11-27T04:50:31.409Z,90.13
2022-11-27T04:53:40.304Z,90.54
2022-11-27T04:56:49.304Z,90.25
2022-11-27T04:59:58.412Z,90.39
2022-11-27T05:03:10.635Z,89.92
2022-11-27T05:06:16.411Z,89.29
2022-11-27T05:09:25.304Z,89.62
2022-11-27T05:12:34.199Z,90.13
2022-11-27T05:15:47.005Z,89.36
2022-11-27T05:19:00.792Z,89.68
2022-11-27T05:22:15.766Z,90.85
2022-11-27T05:25:28.749Z,91.29
2022-11-27T05:28:39.367Z,91.17
2022-11-27T05:31:48.455Z,90.43
2022-11-27T05:34:57.367Z,90.45
2022-11-27T05:38:07.304Z,91.16
2022-11-27T05:41:24.046Z,91.22
2022-11-27T05:44:39.635Z,90.85
2022-11-27T05:47:54.161Z,91.14
2022-11-27T05:51:03.370Z,90.63
2022-11-27T05:54:12.371Z,89.72
2022-11-27T05:57:21.376Z,88.91
2022-11-27T06:00:31.720Z,89.60
2022-11-27T06:03:40.220Z,89.01
2022-11-27T06:06:48.578Z,88.82
2022-11-27T06:09:57.370Z,88.35
2022-11-27T06:13:06.785Z,89.30
2022-11-27T06:16:24.958Z,89.03
2022-11-27T06:19:41.841Z,88.36
2022-11-27T06:22:54.369Z,89.09
2022-11-27T06:26:15.186Z,89.53
2022-11-27T06:29:28.141Z,88.93
2022-11-27T06:32:41.231Z,88.59
2022-11-27T06:35:51.369Z,88.62
2022-11-27T06:39:04.782Z,89.06
2022-11-27T06:42:19.279Z,88.88
2022-11-27T06:45:35.930Z,88.76
2022-11-27T06:48:48.371Z,88.52
2022-11-27T06:51:57.368Z,87.68
2022-11-27T06:55:06.369Z,87.80
2022-11-27T06:58:17.520Z,88.78
2022-11-27T07:01:34.033Z,89.58
2022-11-27T07:04:49.553Z,90.09
2022-11-27T07:08:03.230Z,89.61
2022-11-27T07:11:23.857Z,88.23
2022-11-27T07:14:36.494Z,88.52
2022-11-27T07:17:49.199Z,88.60
2022-11-27T07:21:00.368Z,88.94
2022-11-27T07:24:09.370Z,89.01
2022-11-27T07:27:18.265Z,88.88
2022-11-27T07:30:27.458Z,89.07
2022-11-27T07:33:36.374Z,88.82
2022-11-27T07:36:45.474Z,88.53
2022-11-27T07:40:02.617Z,88.31
2022-11-27T07:43:16.686Z,87.89
2022-11-27T07:46:30.638Z,88.02
2022-11-27T07:49:42.372Z,87.97
2022-11-27T07:52:52.309Z,87.89
2022-11-27T07:56:10.928Z,87.54
2022-11-27T07:59:23.667Z,88.40
2022-11-27T08:02:38.191Z,87.49
2022-11-27T08:05:48.373Z,87.62
2022-11-27T08:08:57.994Z,87.36
2022-11-27T08:12:06.372Z,87.25
2022-11-27T08:15:15.370Z,87.71
2022-11-27T08:18:24.371Z,87.51
2022-11-27T08:21:33.370Z,87.91
2022-11-27T08:24:54.130Z,87.67
2022-11-27T08:28:07.699Z,87.48
2022-11-27T08:31:21.392Z,86.92
2022-11-27T08:34:30.381Z,87.72
2022-11-27T08:37:39.370Z,87.29
2022-11-27T08:40:48.371Z,87.25
2022-11-27T08:43:57.372Z,87.89
2022-11-27T08:47:06.370Z,87.93
2022-11-27T08:50:16.203Z,87.89
2022-11-27T08:53:24.370Z,87.58
2022-11-27T08:56:33.370Z,87.58
2022-11-27T08:59:42.371Z,88.86
2022-11-27T09:02:51.368Z,88.53
2022-11-27T09:06:01.650Z,87.80
2022-11-27T09:09:10.305Z,87.83
2022-11-27T09:12:21.340Z,87.52
2022-11-27T09:15:28.719Z,86.46
2022-11-27T09:18:37.410Z,86.12
2022-11-27T09:21:46.307Z,86.22
2022-11-27T09:24:55.306Z,86.24
2022-11-27T09:28:04.409Z,86.91
2022-11-27T09:31:21.040Z,87.24
2022-11-27T09:34:37.573Z,87.30
2022-11-27T09:37:51.264Z,87.35
2022-11-27T09:41:11.474Z,88.79
2022-11-27T09:44:42.572Z,87.77
2022-11-27T09:48:11.160Z,87.33
2022-11-27T09:51:39.830Z,87.57
2022-11-27T09:55:21.162Z,88.42
2022-11-27T09:58:51.371Z,88.98
2022-11-27T10:02:00.426Z,89.43
2022-11-27T10:05:21.470Z,89.35
2022-11-27T10:09:09.357Z,90.27
2022-11-27T10:12:46.931Z,89.77
2022-11-27T10:16:01.304Z,88.39
2022-11-27T10:19:51.369Z,88.24
2022-11-27T10:23:01.304Z,87.76
2022-11-27T10:26:28.655Z,87.63
2022-11-27T10:29:58.189Z,87.89
2022-11-27T10:33:20.017Z,88.14
2022-11-27T10:36:40.313Z,87.61
2022-11-27T10:40:06.163Z,87.55
2022-11-27T10:43:23.022Z,87.78
2022-11-27T10:46:42.447Z,88.06
2022-11-27T10:49:56.879Z,87.83
2022-11-27T10:53:07.725Z,87.58
2022-11-27T10:56:37.420Z,87.92
2022-11-27T11:00:06.582Z,87.51
2022-11-27T11:03:26.381Z,87.36
2022-11-27T11:06:55.951Z,86.99
2022-11-27T11:10:13.645Z,87.42
2022-11-27T11:13:35.053Z,86.94
2022-11-27T11:16:50.694Z,86.75
2022-11-27T11:20:03.371Z,86.81
2022-11-27T11:23:32.014Z,87.29
2022-11-27T11:27:03.372Z,86.88
2022-11-27T11:30:26.361Z,87.01
2022-11-27T11:33:55.830Z,86.47
2022-11-27T11:37:33.374Z,86.51
2022-11-27T11:40:42.373Z,86.54
2022-11-27T11:44:08.302Z,86.24
2022-11-27T11:47:30.003Z,86.22
2022-11-27T11:51:01.363Z,85.62
2022-11-27T11:54:37.871Z,85.58
2022-11-27T11:58:12.373Z,85.25
2022-11-27T12:02:03.548Z,85.59
2022-11-27T12:05:48.752Z,85.40
2022-11-27T12:09:07.695Z,85.34
2022-11-27T12:12:31.470Z,85.72
2022-11-27T12:16:07.286Z,85.34
2022-11-27T12:19:54.372Z,84.96
2022-11-27T12:23:46.099Z,85.41
2022-11-27T12:27:16.306Z,85.39
2022-11-27T12:30:36.563Z,85.23
2022-11-27T12:34:15.995Z,84.53
2022-11-27T12:38:02.834Z,85.63
2022-11-27T12:41:46.926Z,84.98
2022-11-27T12:45:28.454Z,85.79
2022-11-27T12:48:57.376Z,85.47
2022-11-27T12:52:27.376Z,85.80
2022-11-27T12:55:45.519Z,85.84
2022-11-27T12:59:27.375Z,85.48
2022-11-27T13:02:58.412Z,85.41
2022-11-27T13:06:22.223Z,85.96
2022-11-27T13:09:40.527Z,85.89
2022-11-27T13:13:08.641Z,85.12
2022-11-27T13:16:37.390Z,85.23
2022-11-27T13:19:56.239Z,84.97
2022-11-27T13:23:13.135Z,85.35
2022-11-27T13:26:45.374Z,85.67
2022-11-27T13:29:55.726Z,85.09
2022-11-27T13:33:12.274Z,85.41
2022-11-27T13:36:36.053Z,84.98
2022-11-27T13:39:43.722Z,85.41
2022-11-27T13:43:03.856Z,85.63
2022-11-27T13:46:28.689Z,85.28
2022-11-27T13:49:44.181Z,85.46
2022-11-27T13:53:12.752Z,84.52
2022-11-27T13:56:31.719Z,84.75
2022-11-27T13:59:40.721Z,85.40
2022-11-27T14:02:56.880Z,85.38
2022-11-27T14:06:05.491Z,84.77
2022-11-27T14:09:22.743Z,84.16
2022-11-27T14:12:35.130Z,85.34
2022-11-27T14:15:45.417Z,85.76
2022-11-27T14:19:02.574Z,85.24
2022-11-27T14:23:09.916Z,85.02
2022-11-27T14:26:36.373Z,84.63
2022-11-27T14:29:45.371Z,84.75
2022-11-27T14:32:55.202Z,84.53
2022-11-27T14:36:05.136Z,84.93
2022-11-27T14:39:29.845Z,84.95
2022-11-27T14:42:42.370Z,85.24
2022-11-27T14:46:00.755Z,85.91
2022-11-27T14:49:21.371Z,85.47
2022-11-27T14:52:30.370Z,84.95
2022-11-27T14:55:39.371Z,84.46
2022-11-27T14:59:01.743Z,84.61
2022-11-27T15:02:23.358Z,85.16
2022-11-27T15:05:39.600Z,84.59
2022-11-27T15:09:16.232Z,84.83
2022-11-27T15:12:38.669Z,84.38
2022-11-27T15:15:57.393Z,84.45
2022-11-27T15:19:07.200Z,84.96
2022-11-27T15:22:36.370Z,84.62
2022-11-27T15:25:53.300Z,84.40
2022-11-27T15:29:07.853Z,84.94
2022-11-27T15:32:33.327Z,84.92
2022-11-27T15:35:51.258Z,86.06
2022-11-27T15:39:22.798Z,85.85
2022-11-27T15:42:34.409Z,85.42
2022-11-27T15:45:46.450Z,85.47
2022-11-27T15:49:03.157Z,84.73
2022-11-27T15:52:17.328Z,85.31
2022-11-27T15:55:30.266Z,85.21
2022-11-27T15:58:39.573Z,85.52
2022-11-27T16:01:48.421Z,86.06
2022-11-27T16:04:57.368Z,85.45
2022-11-27T16:08:06.405Z,85.14
2022-11-27T16:11:15.794Z,86.01
2022-11-27T16:14:24.369Z,85.97
2022-11-27T16:17:33.993Z,85.63
2022-11-27T16:20:42.372Z,85.72
2022-11-27T16:23:51.369Z,85.98
2022-11-27T16:27:01.411Z,86.00
2022-11-27T16:30:16.786Z,85.46
2022-11-27T16:33:34.126Z,85.68
2022-11-27T16:36:48.371Z,85.69
2022-11-27T16:39:57.372Z,85.46
2022-11-27T16:43:06.373Z,85.36
2022-11-27T16:46:29.554Z,86.05
2022-11-27T16:49:44.143Z,86.09
2022-11-27T16:52:54.855Z,86.79
2022-11-27T16:56:03.373Z,86.71
2022-11-27T16:59:22.545Z,86.34
2022-11-27T17:02:39.743Z,86.26
2022-11-27T17:05:51.693Z,86.27
2022-11-27T17:09:12.787Z,86.73
2022-11-27T17:12:29.679Z,86.55
2022-11-27T17:15:40.831Z,86.91
2022-11-27T17:18:49.414Z,87.26
2022-11-27T17:21:59.539Z,86.61
2022-11-27T17:25:13.646Z,86.45
2022-11-27T17:28:27.185Z,86.69
2022-11-27T17:31:44.280Z,86.61
2022-11-27T17:34:54.683Z,86.53
2022-11-27T17:38:03.373Z,85.42
2022-11-27T17:41:13.304Z,86.09
2022-11-27T17:44:25.467Z,86.10
2022-11-27T17:47:40.792Z,86.31
2022-11-27T17:50:52.783Z,85.67
2022-11-27T17:54:09.367Z,86.21
2022-11-27T17:57:18.367Z,86.13
2022-11-27T18:00:27.679Z,85.86
2022-11-27T18:03:36.369Z,86.09
2022-11-27T18:06:45.368Z,85.78
2022-11-27T18:09:55.305Z,86.38
2022-11-27T18:13:08.182Z,86.19
2022-11-27T18:16:29.995Z,86.94
2022-11-27T18:19:42.619Z,87.33
2022-11-27T18:22:52.202Z,87.41
2022-11-27T18:26:14.383Z,87.43
2022-11-27T18:29:30.371Z,87.52
2022-11-27T18:32:40.409Z,87.66
2022-11-27T18:35:59.985Z,87.49
2022-11-27T18:39:16.724Z,87.53
2022-11-27T18:42:27.371Z,88.12
2022-11-27T18:45:36.370Z,88.12
2022-11-27T18:48:45.474Z,88.16
2022-11-27T18:51:54.795Z,87.29
2022-11-27T18:55:04.118Z,86.85
2022-11-27T18:58:15.642Z,86.41
2022-11-27T19:01:39.595Z,86.55
2022-11-27T19:04:51.371Z,86.98
2022-11-27T19:08:04.599Z,86.93
2022-11-27T19:11:26.893Z,86.53
2022-11-27T19:14:39.681Z,87.08
2022-11-27T19:17:48.481Z,86.59
2022-11-27T19:20:57.683Z,87.17
2022-11-27T19:24:07.203Z,87.34
2022-11-27T19:27:20.118Z,86.71
2022-11-27T19:30:36.122Z,87.06
2022-11-27T19:34:06.578Z,87.01
2022-11-27T19:37:33.945Z,87.09
2022-11-27T19:40:54.267Z,87.22
2022-11-27T19:44:07.215Z,87.00
2022-11-27T19:47:26.547Z,87.55
2022-11-27T19:50:42.369Z,87.28
2022-11-27T19:53:56.239Z,87.43
2022-11-27T19:57:13.868Z,87.18
2022-11-27T20:00:29.460Z,87.56
2022-11-27T20:03:39.370Z,87.59
2022-11-27T20:06:48.371Z,87.15
2022-11-27T20:09:57.994Z,87.50
2022-11-27T20:13:13.423Z,87.34
2022-11-27T20:16:31.510Z,87.49
2022-11-27T20:19:45.370Z,87.68
2022-11-27T20:22:55.097Z,88.20
2022-11-27T20:26:15.919Z,87.89
2022-11-27T20:29:33.370Z,87.11
2022-11-27T20:32:42.371Z,87.16
2022-11-27T20:35:51.371Z,87.48
2022-11-27T20:39:07.558Z,87.92
2022-11-27T20:42:27.279Z,88.93
2022-11-27T20:45:40.350Z,87.76
2022-11-27T20:48:57.582Z,87.83
2022-11-27T20:52:11.283Z,88.07
2022-11-27T20:55:24.815Z,87.92
2022-11-27T20:58:36.371Z,88.65
2022-11-27T21:01:45.374Z,88.56
2022-11-27T21:04:54.369Z,89.20
2022-11-27T21:08:03.492Z,89.14
2022-11-27T21:11:30.221Z,89.65
2022-11-27T21:14:42.372Z,89.68
2022-11-27T21:17:51.374Z,89.03
2022-11-27T21:21:09.907Z,89.08
2022-11-27T21:24:24.430Z,89.16
2022-11-27T21:27:35.952Z,88.42
2022-11-27T21:30:48.370Z,88.77
2022-11-27T21:33:58.305Z,89.42
2022-11-27T21:37:07.097Z,88.67
2022-11-27T21:40:19.511Z,88.55
2022-11-27T21:43:33.647Z,89.15
2022-11-27T21:46:47.218Z,89.80
2022-11-27T21:50:03.265Z,89.31
2022-11-27T21:53:12.681Z,89.08
2022-11-27T21:56:22.414Z,89.13
2022-11-27T21:59:31.306Z,89.66
2022-11-27T22:02:43.859Z,90.03
2022-11-27T22:06:06.989Z,89.32
2022-11-27T22:09:18.372Z,89.24
2022-11-27T22:12:27.370Z,88.74
2022-11-27T22:15:36.372Z,88.56
2022-11-27T22:18:46.305Z,88.28
2022-11-27T22:21:55.722Z,88.04
2022-11-27T22:25:07.329Z,88.58
2022-11-27T22:28:21.871Z,88.96
2022-11-27T22:31:38.863Z,89.20
2022-11-27T22:34:51.369Z,89.70
2022-11-27T22:38:00.387Z,90.04
2022-11-27T22:41:09.372Z,89.44
2022-11-27T22:44:26.703Z,89.10
2022-11-27T22:47:41.104Z,88.63
2022-11-27T22:50:58.305Z,88.81
2022-11-27T22:54:15.377Z,89.35
2022-11-27T22:57:29.391Z,89.50
2022-11-27T23:00:45.266Z,89.46
2022-11-27T23:03:54.404Z,89.66
2022-11-27T23:07:03.369Z,89.39
2022-11-27T23:10:12.368Z,88.66
2022-11-27T23:13:21.369Z,89.03
2022-11-27T23:16:30.413Z,89.42
2022-11-27T23:19:39.370Z,89.42
2022-11-27T23:22:48.368Z,89.82
2022-11-27T23:25:57.578Z,89.71
2022-11-27T23:29:06.369Z,89.22
2022-11-27T23:32:16.429Z,88.78
2022-11-27T23:35:25.201Z,88.76
2022-11-27T23:38:34.308Z,88.35
2022-11-27T23:41:44.116Z,88.34
2022-11-27T23:44:52.409Z,88.42
2022-11-27T23:48:01.305Z,88.56
2022-11-27T23:51:22.095Z,88.60
2022-11-27T23:54:39.427Z,88.25
2022-11-27T23:57:48.368Z,89.38
